Time;durP1;ratioP1;P1;durP2;ratioP2;P2;SDS_P1;SDS_P2;PMS_P1;PMS_P2;Temp;Humidity;BMP_temperature;BMP_pressure;BME280_temperature;BME280_humidity;BME280_pressure;Samples;Min_cycle;Max_cycle;Signal;HPM_P1;HPM_P2
2023/06/25 00:01:52;;;;;;;8.75;3.60;;;;;;;24.25;52.02;99699.81;4356856;32;33840;-58
2023/06/25 00:04:21;;;;;;;6.57;3.97;;;;;;;24.11;52.40;99697.03;4352679;32;34753;-59
2023/06/25 00:06:48;;;;;;;9.07;4.32;;;;;;;24.20;52.04;99694.09;4349243;32;34564;-58
2023/06/25 00:09:16;;;;;;;5.95;3.20;;;;;;;24.11;52.28;99696.19;4338251;32;34729;-58
2023/06/25 00:11:44;;;;;;;6.90;3.50;;;;;;;24.05;52.37;99694.25;4349190;32;34130;-61
2023/06/25 00:14:11;;;;;;;5.30;3.25;;;;;;;24.01;52.54;99692.97;4347302;32;33853;-59
2023/06/25 00:16:39;;;;;;;7.03;3.83;;;;;;;24.02;52.48;99700.97;4356504;32;34312;-64
2023/06/25 00:19:07;;;;;;;6.82;3.85;;;;;;;23.97;52.78;99702.63;4352335;32;34769;-58
2023/06/25 00:21:34;;;;;;;5.82;3.33;;;;;;;23.90;53.09;99702.59;4355856;32;33538;-59
2023/06/25 00:24:02;;;;;;;8.23;4.20;;;;;;;23.94;53.07;99714.81;4358958;32;33761;-59
2023/06/25 00:26:30;;;;;;;11.05;3.45;;;;;;;23.88;53.35;99711.00;4356637;32;34097;-59
2023/06/25 00:28:57;;;;;;;6.43;3.25;;;;;;;23.88;53.49;99713.75;4354710;32;34187;-59
2023/06/25 00:31:25;;;;;;;8.13;3.67;;;;;;;23.98;53.30;99723.44;4356907;32;33790;-59
2023/06/25 00:33:53;;;;;;;5.43;2.85;;;;;;;23.88;53.56;99719.22;4355473;32;33598;-59
2023/06/25 00:36:20;;;;;;;6.87;3.83;;;;;;;23.92;53.53;99728.69;4359989;32;33706;-59
2023/06/25 00:38:48;;;;;;;6.30;4.05;;;;;;;23.97;53.50;99716.28;4352347;32;33754;-59
2023/06/25 00:41:16;;;;;;;8.02;4.10;;;;;;;23.92;53.75;99730.56;4356951;32;34974;-59
2023/06/25 00:43:44;;;;;;;6.68;2.83;;;;;;;23.93;53.82;99733.09;4353371;32;35353;-59
2023/06/25 00:46:15;;;;;;;6.95;4.00;;;;;;;23.92;53.94;99731.41;4350572;32;35354;-59
2023/06/25 00:48:47;;;;;;;6.40;3.78;;;;;;;23.95;54.01;99735.63;4353510;32;33193;-59
2023/06/25 00:51:16;;;;;;;6.10;3.87;;;;;;;23.85;54.29;99726.94;4314794;33;33286;-59
2023/06/25 00:53:44;;;;;;;10.90;4.05;;;;;;;23.88;54.34;99732.88;4316543;33;33926;-58
2023/06/25 00:56:12;;;;;;;6.32;3.37;;;;;;;23.91;54.38;99743.38;4323638;33;33942;-58
2023/06/25 00:58:40;;;;;;;7.28;4.53;;;;;;;23.90;54.58;99730.75;4326341;33;33477;-58
2023/06/25 01:01:17;;;;;;;5.62;3.37;;;;;;;23.96;54.57;99734.59;4317291;33;33854;-59
2023/06/25 01:03:54;;;;;;;7.43;4.15;;;;;;;24.05;54.33;99729.81;4323418;33;33680;-59
2023/06/25 01:06:36;;;;;;;6.20;3.62;;;;;;;24.07;54.17;99733.16;4315500;33;34320;-59
2023/06/25 01:09:04;;;;;;;5.28;3.03;;;;;;;24.10;54.08;99730.84;4314410;33;34302;-59
2023/06/25 01:11:31;;;;;;;7.25;4.50;;;;;;;24.18;54.02;99719.75;4314014;33;33141;-59
2023/06/25 01:13:59;;;;;;;7.60;3.92;;;;;;;24.24;54.05;99717.25;4324327;33;36927;-59
2023/06/25 01:16:26;;;;;;;7.78;3.90;;;;;;;24.26;54.05;99716.00;4318071;33;33710;-59
2023/06/25 01:18:58;;;;;;;11.60;4.40;;;;;;;24.31;53.89;99713.50;4310993;33;33510;-59
2023/06/25 01:21:31;;;;;;;6.65;3.28;;;;;;;24.34;53.86;99713.09;4321414;33;34105;-59
2023/06/25 01:23:59;;;;;;;7.03;3.60;;;;;;;24.31;54.11;99702.56;4352469;32;35218;-58
2023/06/25 01:26:27;;;;;;;6.80;4.03;;;;;;;24.39;53.79;99699.62;4350992;32;35265;-59
2023/06/25 01:28:55;;;;;;;8.32;3.62;;;;;;;24.36;54.16;99689.09;4353704;32;32058;-59
2023/06/25 01:31:25;;;;;;;6.18;3.05;;;;;;;24.40;54.14;99690.41;4351343;32;34102;-59
2023/06/25 01:33:53;;;;;;;7.07;3.85;;;;;;;24.26;54.48;99699.59;4358417;32;33943;-59
2023/06/25 01:36:21;;;;;;;7.50;4.15;;;;;;;24.37;53.98;99690.81;4359334;32;33885;-59
2023/06/25 01:38:49;;;;;;;7.90;3.83;;;;;;;24.36;53.91;99689.09;4352096;32;34482;-59
2023/06/25 01:41:16;;;;;;;8.07;4.28;;;;;;;24.40;53.76;99687.66;4340505;32;33999;-59
2023/06/25 01:43:44;;;;;;;6.78;3.72;;;;;;;24.37;53.81;99696.28;4350897;32;34450;-59
2023/06/25 01:46:12;;;;;;;6.32;3.33;;;;;;;24.34;54.03;99690.38;4353751;32;34052;-59
2023/06/25 01:48:39;;;;;;;8.25;4.07;;;;;;;24.35;54.07;99692.91;4353413;32;33464;-59
2023/06/25 01:51:07;;;;;;;7.20;3.83;;;;;;;24.32;54.15;99690.56;4347884;32;34688;-59
2023/06/25 01:53:35;;;;;;;8.40;5.30;;;;;;;24.31;54.33;99696.25;4355005;32;34070;-59
2023/06/25 01:56:02;;;;;;;6.10;3.67;;;;;;;24.32;54.31;99693.31;4348630;32;33570;-59
2023/06/25 01:58:30;;;;;;;7.60;4.20;;;;;;;24.29;54.27;99696.44;4354046;32;32189;-59
2023/06/25 02:00:58;;;;;;;9.27;4.15;;;;;;;24.28;54.37;99693.94;4350850;32;33707;-59
2023/06/25 02:03:26;;;;;;;7.00;4.22;;;;;;;24.24;54.70;99698.97;4349630;32;35501;-59
2023/06/25 02:05:53;;;;;;;7.72;3.95;;;;;;;24.29;54.55;99690.13;4355719;32;37089;-59
2023/06/25 02:08:21;;;;;;;10.27;4.32;;;;;;;24.23;54.64;99691.78;4358540;32;33445;-59
2023/06/25 02:10:48;;;;;;;7.65;4.18;;;;;;;24.27;54.63;99695.84;4347644;32;34383;-59
2023/06/25 02:13:16;;;;;;;6.00;3.50;;;;;;;24.27;54.73;99695.84;4345872;32;34241;-59
2023/06/25 02:15:44;;;;;;;8.38;3.83;;;;;;;24.20;55.01;99697.66;4353794;32;35002;-59
2023/06/25 02:18:14;;;;;;;9.00;4.55;;;;;;;24.23;54.96;99694.53;4351973;32;33483;-58
2023/06/25 02:20:42;;;;;;;6.45;3.60;;;;;;;24.31;54.84;99697.09;4356563;32;33586;-59
2023/06/25 02:23:09;;;;;;;7.78;3.15;;;;;;;24.36;54.60;99693.72;4350966;32;33728;-59
2023/06/25 02:25:37;;;;;;;7.53;4.10;;;;;;;24.38;54.49;99700.69;4357709;32;34264;-59
2023/06/25 02:28:05;;;;;;;9.38;3.80;;;;;;;24.37;54.37;99707.22;4347214;32;34147;-59
2023/06/25 02:30:32;;;;;;;4.70;3.05;;;;;;;24.39;54.36;99713.31;4346854;32;33577;-59
2023/06/25 02:33:00;;;;;;;6.65;3.80;;;;;;;24.37;54.35;99700.91;4351246;32;34051;-59
2023/06/25 02:35:28;;;;;;;8.68;4.62;;;;;;;24.37;54.28;99706.38;4356165;32;33949;-59
2023/06/25 02:37:56;;;;;;;6.20;3.80;;;;;;;24.30;54.50;99705.50;4353806;32;34757;-59
2023/06/25 02:40:24;;;;;;;9.50;3.97;;;;;;;24.34;54.34;99702.16;4348779;32;33449;-59
2023/06/25 02:42:52;;;;;;;10.88;4.43;;;;;;;24.34;54.30;99698.59;4354298;32;33619;-59
2023/06/25 02:45:19;;;;;;;7.68;4.12;;;;;;;24.34;54.39;99710.38;4357449;32;34243;-58
2023/06/25 02:47:48;;;;;;;5.50;3.25;;;;;;;24.34;54.49;99702.16;4353106;32;34480;-59
2023/06/25 02:50:15;;;;;;;8.77;4.20;;;;;;;24.37;54.38;99706.38;4352572;32;33715;-59
2023/06/25 02:52:44;;;;;;;6.87;4.05;;;;;;;24.39;54.31;99701.53;4356838;32;33696;-59
2023/06/25 02:55:11;;;;;;;8.20;4.30;;;;;;;24.41;54.39;99702.22;4352038;32;33680;-59
2023/06/25 02:57:39;;;;;;;7.55;4.03;;;;;;;24.40;54.61;99706.81;4353735;32;35280;-59
2023/06/25 03:00:07;;;;;;;7.62;3.90;;;;;;;24.46;54.49;99709.78;4351907;32;34947;-59
2023/06/25 03:02:35;;;;;;;6.87;3.55;;;;;;;24.48;54.59;99703.06;4351221;32;35203;-58
2023/06/25 03:05:03;;;;;;;9.63;4.18;;;;;;;24.52;54.63;99700.75;4356531;32;35306;-58
2023/06/25 03:07:31;;;;;;;7.50;3.70;;;;;;;24.50;54.88;99703.72;4356816;32;34832;-59
2023/06/25 03:09:59;;;;;;;8.95;4.10;;;;;;;24.32;55.66;99703.41;4346919;32;35335;-59
2023/06/25 03:12:26;;;;;;;9.70;4.32;;;;;;;24.34;55.75;99704.06;4356470;32;33681;-59
2023/06/25 03:14:54;;;;;;;6.82;3.70;;;;;;;24.27;56.14;99708.62;4355888;32;34858;-59
2023/06/25 03:17:22;;;;;;;6.05;3.35;;;;;;;24.29;56.19;99706.53;4349742;32;35072;-58
2023/06/25 03:19:50;;;;;;;8.00;3.55;;;;;;;24.31;56.18;99697.09;4345362;32;34050;-59
2023/06/25 03:22:17;;;;;;;6.90;3.55;;;;;;;24.33;56.27;99699.62;4358102;32;34914;-59
2023/06/25 03:24:45;;;;;;;9.93;4.28;;;;;;;24.39;56.24;99707.00;4352138;32;34359;-59
2023/06/25 03:27:13;;;;;;;10.07;5.10;;;;;;;24.36;56.64;99710.97;4352578;32;32915;-58
2023/06/25 03:29:40;;;;;;;9.48;4.50;;;;;;;24.29;56.99;99712.00;4347543;32;33675;-58
2023/06/25 03:32:08;;;;;;;7.25;4.25;;;;;;;24.30;56.73;99714.56;4349507;32;34040;-59
2023/06/25 03:34:36;;;;;;;7.10;4.18;;;;;;;24.56;56.00;99711.09;4355539;32;35239;-59
2023/06/25 03:37:05;;;;;;;6.62;4.12;;;;;;;24.56;56.11;99707.53;4351321;32;34476;-58
2023/06/25 03:39:32;;;;;;;7.62;3.97;;;;;;;24.55;56.37;99708.56;4350347;32;33837;-58
2023/06/25 03:42:00;;;;;;;6.60;3.83;;;;;;;24.50;56.67;99711.94;4353525;32;33507;-58
2023/06/25 03:44:27;;;;;;;8.27;3.83;;;;;;;24.54;56.58;99707.72;4355037;32;33948;-58
2023/06/25 03:46:55;;;;;;;8.38;4.85;;;;;;;24.55;56.57;99714.03;4351025;32;33544;-58
2023/06/25 03:49:23;;;;;;;5.55;3.35;;;;;;;24.52;56.50;99715.28;4357698;32;34341;-57
2023/06/25 03:51:50;;;;;;;7.03;3.95;;;;;;;24.51;56.66;99708.12;4348463;32;34625;-58
2023/06/25 03:54:18;;;;;;;6.80;4.37;;;;;;;24.56;56.77;99710.25;4354071;32;34289;-58
2023/06/25 03:56:46;;;;;;;8.40;4.15;;;;;;;24.61;56.64;99705.84;4355649;32;34748;-58
2023/06/25 03:59:13;;;;;;;6.00;3.60;;;;;;;24.59;56.46;99713.44;4356393;32;34139;-58
2023/06/25 04:01:41;;;;;;;5.68;3.08;;;;;;;24.62;56.41;99709.41;4345810;32;35145;-61
2023/06/25 04:04:09;;;;;;;9.23;2.90;;;;;;;24.59;56.67;99715.28;4353632;32;34130;-58
2023/06/25 04:06:36;;;;;;;9.27;3.95;;;;;;;24.59;56.83;99712.56;4350806;32;34754;-58
2023/06/25 04:09:08;;;;;;;8.50;4.20;;;;;;;24.47;57.36;99716.97;4346092;32;32394;-58
2023/06/25 04:11:35;;;;;;;7.90;4.22;;;;;;;24.58;56.83;99714.44;4348019;32;33598;-58
2023/06/25 04:14:05;;;;;;;9.20;5.00;;;;;;;24.63;56.52;99719.31;4345252;32;34858;-58
2023/06/25 04:16:32;;;;;;;6.65;3.80;;;;;;;24.66;56.03;99726.28;4345868;32;32086;-58
2023/06/25 04:19:01;;;;;;;8.13;4.28;;;;;;;24.65;56.08;99714.47;4354189;32;34009;-58
2023/06/25 04:21:30;;;;;;;8.07;5.15;;;;;;;24.69;56.03;99718.50;4350532;32;33905;-58
2023/06/25 04:23:58;;;;;;;8.07;4.12;;;;;;;24.65;56.42;99714.47;4352592;32;34314;-58
2023/06/25 04:26:26;;;;;;;9.35;4.80;;;;;;;24.48;56.88;99711.28;4353923;32;33683;-58
2023/06/25 04:28:53;;;;;;;7.93;4.57;;;;;;;24.63;56.49;99711.94;4344587;32;33461;-58
2023/06/25 04:31:23;;;;;;;9.85;5.03;;;;;;;24.69;56.36;99706.69;4357682;32;34053;-58
2023/06/25 04:33:51;;;;;;;6.75;4.03;;;;;;;24.69;56.34;99707.56;4349733;32;33878;-59
2023/06/25 04:36:22;;;;;;;6.85;3.58;;;;;;;24.72;56.15;99709.00;4347524;32;34447;-58
2023/06/25 04:38:50;;;;;;;11.57;4.93;;;;;;;24.72;56.11;99709.88;4347577;32;34062;-59
2023/06/25 04:41:20;;;;;;;6.37;4.37;;;;;;;24.51;56.96;99708.12;4352244;32;33671;-58
2023/06/25 04:43:48;;;;;;;5.90;3.78;;;;;;;24.68;56.60;99699.53;4353726;32;34243;-58
2023/06/25 04:46:15;;;;;;;7.93;4.78;;;;;;;24.76;56.37;99705.66;4351556;32;33183;-58
2023/06/25 04:48:45;;;;;;;7.40;4.45;;;;;;;24.80;55.94;99703.34;4361735;32;33621;-58
2023/06/25 04:51:13;;;;;;;7.95;4.87;;;;;;;24.71;55.87;99708.16;4351752;32;34025;-58
2023/06/25 04:53:40;;;;;;;8.15;4.10;;;;;;;24.68;55.87;99700.38;4365242;32;34792;-58
2023/06/25 04:56:08;;;;;;;7.95;4.00;;;;;;;24.66;55.97;99707.12;4348233;32;33451;-59
2023/06/25 04:58:37;;;;;;;6.32;3.70;;;;;;;24.73;55.76;99702.50;4349488;32;33539;-58
2023/06/25 05:01:04;;;;;;;7.43;4.07;;;;;;;24.73;55.87;99706.06;4350088;32;34092;-59
2023/06/25 05:03:32;;;;;;;6.65;3.58;;;;;;;24.59;55.96;99707.94;4349633;32;33803;-58
2023/06/25 05:06:00;;;;;;;6.72;4.15;;;;;;;24.67;55.68;99706.91;4361426;32;34436;-58
2023/06/25 05:08:27;;;;;;;6.30;4.05;;;;;;;24.69;55.52;99712.16;4357047;32;34362;-58
2023/06/25 05:10:55;;;;;;;6.95;4.35;;;;;;;24.68;55.53;99707.75;4350646;32;34080;-58
2023/06/25 05:13:23;;;;;;;6.57;3.33;;;;;;;24.68;55.66;99711.31;4353536;32;35252;-58
2023/06/25 05:15:50;;;;;;;6.43;4.18;;;;;;;24.77;55.69;99706.50;4357209;32;33677;-58
2023/06/25 05:18:18;;;;;;;5.90;3.17;;;;;;;24.83;55.67;99713.88;4354362;32;33941;-59
2023/06/25 05:20:45;;;;;;;6.30;3.83;;;;;;;24.69;56.34;99713.03;4352735;32;34892;-58
2023/06/25 05:23:13;;;;;;;7.82;4.15;;;;;;;24.80;55.92;99711.56;4346853;32;34033;-58
2023/06/25 05:25:41;;;;;;;8.15;4.43;;;;;;;24.91;55.57;99712.84;4346222;32;34533;-58
2023/06/25 05:28:08;;;;;;;10.43;5.55;;;;;;;24.74;56.01;99717.88;4351988;32;33891;-58
2023/06/25 05:30:36;;;;;;;6.05;3.92;;;;;;;24.64;56.65;99715.53;4348041;32;35049;-58
2023/06/25 05:33:04;;;;;;;6.40;3.80;;;;;;;24.95;55.62;99716.88;4351677;32;34246;-58
2023/06/25 05:35:31;;;;;;;7.90;3.87;;;;;;;24.88;55.48;99719.59;4353649;32;33606;-58
2023/06/25 05:37:59;;;;;;;7.00;4.00;;;;;;;25.07;55.06;99728.84;4352221;32;34186;-58
2023/06/25 05:40:27;;;;;;;7.22;3.22;;;;;;;24.78;55.61;99721.88;4349688;32;34013;-58
2023/06/25 05:42:55;;;;;;;6.45;3.78;;;;;;;25.11;54.87;99727.41;4353527;32;33142;-58
2023/06/25 05:45:22;;;;;;;7.10;3.35;;;;;;;25.20;54.90;99736.25;4349761;32;33470;-59
2023/06/25 05:47:50;;;;;;;5.87;3.35;;;;;;;25.30;54.82;99733.97;4352984;32;33811;-58
2023/06/25 05:50:18;;;;;;;5.53;3.28;;;;;;;25.40;54.22;99744.50;4354568;32;35315;-58
2023/06/25 05:52:46;;;;;;;6.07;3.40;;;;;;;25.40;54.24;99733.56;4351653;32;34865;-58
2023/06/25 05:55:13;;;;;;;6.78;3.65;;;;;;;25.34;53.74;99740.72;4360870;32;33326;-58
2023/06/25 05:57:41;;;;;;;8.45;4.22;;;;;;;25.55;53.25;99737.75;4354743;32;34712;-58
2023/06/25 06:00:09;;;;;;;6.68;3.45;;;;;;;25.54;53.13;99738.78;4348001;32;34925;-58
2023/06/25 06:02:39;;;;;;;6.45;3.20;;;;;;;25.44;53.37;99740.28;4348352;32;35480;-58
2023/06/25 06:05:07;;;;;;;6.45;3.70;;;;;;;25.43;53.35;99735.88;4350001;32;33927;-58
2023/06/25 06:07:34;;;;;;;7.15;2.87;;;;;;;25.33;53.59;99737.13;4350260;32;34980;-62
2023/06/25 06:10:02;;;;;;;4.15;2.45;;;;;;;25.29;53.58;99733.09;4353165;32;35305;-58
2023/06/25 06:12:30;;;;;;;6.62;2.53;;;;;;;25.23;52.76;99741.31;4356889;32;33979;-58
2023/06/25 06:14:58;;;;;;;3.97;2.20;;;;;;;25.08;53.19;99738.78;4356236;32;33186;-58
2023/06/25 06:17:25;;;;;;;3.20;2.00;;;;;;;25.00;53.35;99733.47;4346721;32;33603;-58
2023/06/25 06:19:53;;;;;;;5.43;2.55;;;;;;;25.22;52.77;99737.75;4351421;32;34144;-57
2023/06/25 06:22:22;;;;;;;8.80;3.12;;;;;;;25.33;52.54;99741.78;4356720;32;33718;-58
2023/06/25 06:24:49;;;;;;;3.72;2.37;;;;;;;24.81;53.23;99740.59;4357759;32;34385;-58
2023/06/25 06:27:17;;;;;;;4.53;2.17;;;;;;;25.12;52.74;99737.31;4353106;32;33580;-57
2023/06/25 06:29:44;;;;;;;5.82;2.25;;;;;;;25.13;52.61;99733.53;4354589;32;33666;-58
2023/06/25 06:32:12;;;;;;;5.68;2.47;;;;;;;24.94;53.36;99740.63;4348914;32;34269;-58
2023/06/25 06:34:41;;;;;;;3.75;2.08;;;;;;;25.02;53.39;99736.88;4349977;32;33538;-58
2023/06/25 06:37:09;;;;;;;3.67;2.03;;;;;;;25.16;52.98;99746.81;4358839;32;34572;-57
2023/06/25 06:39:36;;;;;;;4.45;2.22;;;;;;;25.03;53.03;99749.50;4352699;32;34150;-57
2023/06/25 06:42:04;;;;;;;5.60;2.25;;;;;;;25.22;52.41;99748.69;4351279;32;34969;-57
2023/06/25 06:44:32;;;;;;;5.12;2.37;;;;;;;25.14;52.13;99748.09;4357608;32;34787;-57
2023/06/25 06:46:59;;;;;;;4.43;2.55;;;;;;;25.19;52.07;99749.13;4352042;32;34321;-57
2023/06/25 06:49:27;;;;;;;4.15;2.05;;;;;;;25.28;52.09;99755.25;4358058;32;35003;-57
2023/06/25 06:51:54;;;;;;;4.78;2.12;;;;;;;25.31;51.97;99744.72;4349359;32;34254;-57
2023/06/25 06:54:22;;;;;;;4.70;2.25;;;;;;;25.30;52.01;99742.19;4347379;32;33773;-57
2023/06/25 06:56:50;;;;;;;4.20;2.25;;;;;;;24.99;52.42;99748.25;4346320;32;34393;-58
2023/06/25 06:59:17;;;;;;;2.87;1.65;;;;;;;25.06;51.28;99744.44;4346075;32;34051;-58
2023/06/25 07:01:45;;;;;;;5.65;1.92;;;;;;;25.09;50.44;99743.19;4346025;32;33760;-57
2023/06/25 07:04:13;;;;;;;4.50;1.58;;;;;;;25.01;51.56;99744.25;4347817;32;33710;-59
2023/06/25 07:06:43;;;;;;;3.80;1.67;;;;;;;24.74;51.42;99746.06;4351621;32;33558;-58
2023/06/25 07:09:11;;;;;;;6.40;1.70;;;;;;;25.08;51.08;99742.34;4348286;32;34315;-58
2023/06/25 07:11:39;;;;;;;2.15;1.42;;;;;;;25.08;51.29;99747.00;4349053;32;34179;-58
2023/06/25 07:14:07;;;;;;;1.75;1.00;;;;;;;24.46;52.34;99748.09;4355958;32;34440;-58
2023/06/25 07:16:35;;;;;;;2.85;1.50;;;;;;;24.57;51.50;99750.25;4348433;32;34765;-58
2023/06/25 07:19:03;;;;;;;3.67;1.92;;;;;;;24.86;50.40;99752.62;4345133;32;35081;-58
2023/06/25 07:21:30;;;;;;;3.10;1.23;;;;;;;24.77;50.99;99744.81;4354854;32;34256;-58
2023/06/25 07:23:58;;;;;;;2.95;1.55;;;;;;;24.78;50.97;99749.25;4354865;32;34651;-58
2023/06/25 07:26:25;;;;;;;1.58;1.10;;;;;;;24.72;51.02;99745.44;4349420;32;33442;-57
2023/06/25 07:28:53;;;;;;;6.00;2.10;;;;;;;24.80;50.89;99749.87;4360044;32;33851;-57
2023/06/25 07:31:20;;;;;;;3.20;1.60;;;;;;;24.81;51.17;99738.72;4351653;32;34136;-58
2023/06/25 07:33:48;;;;;;;2.70;1.55;;;;;;;25.00;50.52;99742.53;4360712;32;33103;-58
2023/06/25 07:36:16;;;;;;;1.98;1.35;;;;;;;24.85;52.00;99739.16;4358051;32;34981;-57
2023/06/25 07:38:44;;;;;;;3.40;1.95;;;;;;;25.08;50.58;99728.66;4345502;32;33974;-58
2023/06/25 07:41:12;;;;;;;3.53;1.62;;;;;;;25.07;50.70;99737.06;4354344;32;34187;-58
2023/06/25 07:43:39;;;;;;;3.92;1.50;;;;;;;25.11;50.28;99735.63;4348540;32;33660;-58
2023/06/25 07:46:07;;;;;;;14.95;2.40;;;;;;;25.18;49.93;99744.72;4335991;32;33630;-58
2023/06/25 07:48:34;;;;;;;3.17;2.00;;;;;;;25.10;50.64;99734.78;4334486;32;32384;-58
2023/06/25 07:51:02;;;;;;;4.97;1.95;;;;;;;25.00;50.53;99741.69;4334330;32;33755;-58
2023/06/25 07:53:30;;;;;;;4.60;2.37;;;;;;;25.35;50.60;99744.28;4334577;32;33225;-58
2023/06/25 07:55:57;;;;;;;6.03;2.85;;;;;;;25.35;52.08;99741.56;4336552;32;35182;-58
2023/06/25 07:58:30;;;;;;;5.85;2.67;;;;;;;25.54;52.20;99740.69;4335733;32;35665;-58
2023/06/25 08:00:58;;;;;;;10.60;3.35;;;;;;;25.52;52.89;99738.19;4332889;32;34973;-58
2023/06/25 08:03:26;;;;;;;9.77;3.50;;;;;;;25.81;51.74;99744.28;4334956;32;33335;-58
2023/06/25 08:05:54;;;;;;;4.68;2.55;;;;;;;25.91;51.61;99741.09;4334865;32;32424;-58
2023/06/25 08:08:21;;;;;;;4.97;2.50;;;;;;;25.85;51.31;99744.72;4333084;32;34913;-58
2023/06/25 08:10:51;;;;;;;4.72;2.90;;;;;;;25.71;50.45;99738.34;4334213;32;34431;-58
2023/06/25 08:13:20;;;;;;;4.60;2.03;;;;;;;25.94;49.49;99732.41;4334730;32;33408;-58
2023/06/25 08:15:47;;;;;;;3.40;2.00;;;;;;;26.07;49.48;99737.91;4333562;32;33744;-58
2023/06/25 08:18:15;;;;;;;3.67;2.08;;;;;;;25.91;50.25;99738.38;4333761;32;32884;-58
2023/06/25 08:20:43;;;;;;;3.85;2.25;;;;;;;25.96;49.18;99738.53;4334425;32;33522;-58
2023/06/25 08:23:10;;;;;;;3.97;1.95;;;;;;;26.11;48.85;99735.56;4335615;32;34763;-58
2023/06/25 08:25:38;;;;;;;12.50;2.10;;;;;;;26.03;49.27;99733.87;4334239;32;33725;-58
2023/06/25 08:28:06;;;;;;;4.82;1.90;;;;;;;26.15;48.46;99734.91;4337681;32;33739;-58
2023/06/25 08:30:34;;;;;;;3.87;1.75;;;;;;;26.05;47.77;99742.75;4339943;32;35240;-58
2023/06/25 08:33:02;;;;;;;4.35;1.85;;;;;;;26.29;47.48;99726.63;4338441;32;33846;-58
2023/06/25 08:35:29;;;;;;;2.20;1.33;;;;;;;26.27;47.07;99734.25;4349046;32;34005;-58
2023/06/25 08:37:57;;;;;;;2.67;1.65;;;;;;;26.37;47.21;99731.88;4355491;32;34364;-58
2023/06/25 08:40:26;;;;;;;3.00;1.50;;;;;;;26.31;47.53;99732.72;4350852;32;33741;-58
2023/06/25 08:42:53;;;;;;;2.85;1.52;;;;;;;26.51;46.92;99730.75;4354468;32;34086;-58
2023/06/25 08:45:21;;;;;;;4.20;1.50;;;;;;;26.50;46.81;99723.59;4352877;32;33624;-57
2023/06/25 08:47:54;;;;;;;3.67;1.85;;;;;;;26.48;46.56;99726.56;4352062;32;34270;-58
2023/06/25 08:50:23;;;;;;;3.87;1.27;;;;;;;26.54;46.57;99727.59;4350724;32;35251;-58
2023/06/25 08:52:51;;;;;;;2.45;1.20;;;;;;;26.58;46.09;99715.12;4348451;32;33780;-58
2023/06/25 08:55:21;;;;;;;4.28;1.45;;;;;;;26.56;45.23;99728.22;4338321;32;34728;-58
2023/06/25 08:57:49;;;;;;;0.90;0.80;;;;;;;26.43;46.33;99725.50;4356272;32;33449;-58
2023/06/25 09:00:17;;;;;;;3.10;1.73;;;;;;;26.63;45.38;99718.03;4356116;32;34555;-58
2023/06/25 09:02:44;;;;;;;1.50;0.82;;;;;;;26.77;45.35;99712.47;4346666;32;33229;-58
2023/06/25 09:05:12;;;;;;;1.85;1.20;;;;;;;26.61;44.84;99717.44;4346185;32;33849;-58
2023/06/25 09:07:44;;;;;;;4.30;1.73;;;;;;;26.57;44.57;99718.06;4359826;32;35200;-58
2023/06/25 09:10:13;;;;;;;4.80;2.20;;;;;;;26.16;45.41;99717.41;4346830;32;33992;-58
2023/06/25 09:12:44;;;;;;;4.32;1.50;;;;;;;26.47;45.25;99718.50;4350750;32;33662;-58
2023/06/25 09:15:12;;;;;;;2.47;1.30;;;;;;;26.65;45.40;99704.09;4355027;32;33630;-58
2023/06/25 09:17:39;;;;;;;4.65;1.62;;;;;;;26.80;44.86;99706.53;4347412;32;34433;-58
2023/06/25 09:20:07;;;;;;;2.75;1.48;;;;;;;26.66;45.24;99703.87;4357543;32;34105;-58
2023/06/25 09:22:52;;;;;;;2.85;1.40;;;;;;;26.67;45.63;99705.53;4355193;32;35311;-58
2023/06/25 09:25:29;;;;;;;3.00;1.27;;;;;;;27.01;45.07;99702.59;4359267;32;34429;-59
2023/06/25 09:27:59;;;;;;;3.85;1.73;;;;;;;26.61;45.85;99691.84;4349590;32;34400;-58
2023/06/25 09:30:27;;;;;;;3.78;1.50;;;;;;;26.46;46.13;99695.72;4348813;32;33724;-58
2023/06/25 09:32:55;;;;;;;3.22;1.25;;;;;;;26.77;45.95;99702.31;4362725;32;33184;-58
2023/06/25 09:35:29;;;;;;;4.97;2.22;;;;;;;26.97;45.43;99696.72;4364860;32;34083;-58
2023/06/25 09:37:57;;;;;;;4.15;1.95;;;;;;;27.12;45.23;99697.19;4367270;32;33722;-58
2023/06/25 09:40:24;;;;;;;4.37;1.70;;;;;;;26.90;45.54;99695.87;4353233;32;34807;-58
2023/06/25 09:42:54;;;;;;;2.95;1.55;;;;;;;26.79;46.10;99694.72;4351444;32;33536;-58
2023/06/25 09:45:23;;;;;;;4.00;1.58;;;;;;;26.84;46.56;99696.81;4359142;32;34093;-58
2023/06/25 09:47:52;;;;;;;2.75;1.25;;;;;;;27.03;45.70;99690.31;4361989;32;33685;-58
2023/06/25 09:50:26;;;;;;;3.67;1.65;;;;;;;26.72;45.52;99688.44;4354043;32;34662;-58
2023/06/25 09:52:57;;;;;;;2.33;1.30;;;;;;;26.42;44.47;99689.00;4360935;32;33375;-58
2023/06/25 09:55:28;;;;;;;2.60;1.35;;;;;;;26.07;45.73;99685.78;4364315;32;33983;-58
2023/06/25 09:57:56;;;;;;;4.22;1.87;;;;;;;26.93;43.52;99681.72;4363614;32;34822;-59
2023/06/25 10:00:25;;;;;;;3.42;1.75;;;;;;;27.20;42.77;99681.56;4364435;32;34219;-58
2023/06/25 10:02:52;;;;;;;3.10;1.52;;;;;;;27.36;42.97;99676.31;4371177;32;33692;-58
2023/06/25 10:05:20;;;;;;;4.57;3.53;;;;;;;27.10;43.74;99680.13;4364502;32;33651;-58
2023/06/25 10:07:48;;;;;;;2.28;1.27;;;;;;;27.13;43.10;99671.47;4350632;32;34274;-58
2023/06/25 10:10:42;;;;;;;4.43;1.95;;;;;;;27.53;42.55;99673.81;4366825;32;35240;-59
2023/06/25 10:13:10;;;;;;;2.87;1.58;;;;;;;27.51;40.82;99672.38;4306626;33;33631;-58
2023/06/25 10:15:38;;;;;;;3.33;1.55;;;;;;;27.52;41.53;99668.56;4299806;33;34031;-58
2023/06/25 10:18:06;;;;;;;3.20;1.30;;;;;;;27.58;41.59;99665.75;4297018;33;33863;-58
2023/06/25 10:20:35;;;;;;;4.10;1.90;;;;;;;27.44;41.35;99669.69;4301783;33;35257;-58
2023/06/25 10:23:03;;;;;;;4.68;2.12;;;;;;;27.57;41.92;99668.72;4301653;33;34326;-58
2023/06/25 10:25:31;;;;;;;2.55;1.48;;;;;;;27.69;41.93;99669.62;4302622;33;33622;-58
2023/06/25 10:28:13;;;;;;;3.20;1.45;;;;;;;27.60;41.63;99669.09;4298198;33;33916;-58
2023/06/25 10:30:48;;;;;;;2.17;1.20;;;;;;;27.26;42.14;99673.25;4277723;33;33749;-58
2023/06/25 10:33:17;;;;;;;2.55;1.42;;;;;;;27.75;40.90;99670.66;4279561;33;33227;-58
2023/06/25 10:36:06;;;;;;;2.90;1.33;;;;;;;27.65;41.86;99665.69;4280231;33;34713;-59
2023/06/25 10:38:34;;;;;;;2.80;1.50;;;;;;;27.49;42.46;99664.34;4277721;33;33478;-59
2023/06/25 10:41:02;;;;;;;3.58;1.73;;;;;;;27.09;41.15;99650.94;4280763;33;35353;-58
2023/06/25 10:43:29;;;;;;;3.30;1.45;;;;;;;27.39;41.40;99662.12;4277755;33;33310;-58
2023/06/25 10:45:57;;;;;;;3.47;1.83;;;;;;;27.92;40.60;99663.47;4277401;33;34120;-58
2023/06/25 10:48:25;;;;;;;4.18;1.80;;;;;;;28.10;39.71;99655.22;4279735;33;33918;-58
2023/06/25 10:50:53;;;;;;;4.07;1.92;;;;;;;27.59;41.58;99670.16;4322739;32;34519;-58
2023/06/25 10:53:22;;;;;;;3.50;1.62;;;;;;;27.44;40.83;99661.44;4334622;32;33408;-58
2023/06/25 10:55:52;;;;;;;4.90;1.92;;;;;;;27.97;40.04;99657.31;4333321;32;32540;-58
2023/06/25 10:58:21;;;;;;;3.15;1.87;;;;;;;27.55;41.49;99659.88;4336699;32;34658;-58
2023/06/25 11:00:54;;;;;;;4.65;1.80;;;;;;;28.05;38.29;99659.72;4335202;32;33816;-58
2023/06/25 11:03:23;;;;;;;2.83;1.50;;;;;;;27.71;38.93;99658.44;4337178;32;34709;-59
2023/06/25 11:05:51;;;;;;;4.35;1.90;;;;;;;28.19;37.80;99652.16;4338067;32;32290;-58
2023/06/25 11:08:24;;;;;;;6.72;1.62;;;;;;;28.03;38.75;99653.62;4336765;32;33555;-58
2023/06/25 11:10:52;;;;;;;2.33;1.45;;;;;;;27.32;40.41;99655.00;4334365;32;33847;-58
2023/06/25 11:13:21;;;;;;;3.58;1.67;;;;;;;27.80;39.42;99646.06;4342430;32;35293;-58
2023/06/25 11:15:50;;;;;;;6.55;1.80;;;;;;;27.28;39.65;99651.88;4342255;32;33754;-58
2023/06/25 11:18:22;;;;;;;3.65;1.95;;;;;;;28.06;38.11;99639.41;4335410;32;33835;-58
2023/06/25 11:20:50;;;;;;;3.12;1.45;;;;;;;27.78;38.52;99637.22;4334914;32;35448;-57
2023/06/25 11:23:18;;;;;;;3.25;1.45;;;;;;;27.95;37.65;99643.78;4334607;32;33202;-57
2023/06/25 11:25:45;;;;;;;2.58;1.40;;;;;;;27.95;38.13;99632.75;4335209;32;33231;-60
2023/06/25 11:28:14;;;;;;;3.10;1.62;;;;;;;28.03;38.47;99629.72;4331136;32;33899;-59
2023/06/25 11:30:44;;;;;;;3.87;1.60;;;;;;;28.18;38.54;99628.44;4334834;32;35033;-58
2023/06/25 11:33:17;;;;;;;3.95;1.77;;;;;;;28.47;38.54;99629.56;4337162;32;34321;-59
2023/06/25 11:35:50;;;;;;;4.82;2.15;;;;;;;28.21;39.90;99623.31;4337574;32;34664;-60
2023/06/25 11:38:28;;;;;;;4.97;1.77;;;;;;;28.51;38.10;99623.34;4340932;32;33972;-57
2023/06/25 11:40:57;;;;;;;2.47;1.48;;;;;;;28.41;37.41;99620.34;4335879;32;34355;-57